Time;durP1;ratioP1;P1;durP2;ratioP2;P2;SDS_P1;SDS_P2;PMS_P1;PMS_P2;Temp;Humidity;BMP_temperature;BMP_pressure;BME280_temperature;BME280_humidity;BME280_pressure;Samples;Min_cycle;Max_cycle;Signal;HPM_P1;HPM_P2
2022/07/11 00:01:49;;;;;;;2.83;0.93;;;;;;;16.67;52.48;93953.56;5004870;28;20224;-77
2022/07/11 00:04:14;;;;;;;2.42;0.90;;;;;;;16.59;53.17;93945.34;5004926;28;20220;-77
2022/07/11 00:06:40;;;;;;;1.85;1.25;;;;;;;16.63;53.62;93954.28;5004622;28;20025;-77
2022/07/11 00:09:06;;;;;;;2.50;1.20;;;;;;;16.55;53.25;93946.41;5004674;28;20018;-77
2022/07/11 00:11:31;;;;;;;4.35;1.40;;;;;;;16.45;53.27;93959.22;5003545;28;20101;-77
2022/07/11 00:13:57;;;;;;;14.93;1.30;;;;;;;16.46;53.77;93951.94;5004656;28;20073;-77
2022/07/11 00:16:23;;;;;;;2.17;1.20;;;;;;;16.45;53.81;93953.09;5004425;28;20309;-77
2022/07/11 00:18:48;;;;;;;4.68;1.30;;;;;;;16.43;53.86;93952.66;5004605;28;20026;-77
2022/07/11 00:21:14;;;;;;;3.90;1.20;;;;;;;16.38;54.21;93963.66;5004674;28;20029;-77
2022/07/11 00:23:39;;;;;;;1.63;1.08;;;;;;;16.27;54.37;93968.78;5004425;28;20033;-77
2022/07/11 00:26:05;;;;;;;1.88;1.23;;;;;;;16.25;55.03;93966.41;5004295;28;20045;-77
2022/07/11 00:28:30;;;;;;;1.70;1.13;;;;;;;16.18;54.64;93968.94;5003864;28;20399;-77
2022/07/11 00:30:56;;;;;;;2.97;1.30;;;;;;;16.14;54.50;93964.59;5004354;28;20018;-77
2022/07/11 00:33:22;;;;;;;3.88;1.08;;;;;;;16.11;54.95;93979.50;5004273;28;20219;-77
2022/07/11 00:35:47;;;;;;;3.90;1.10;;;;;;;16.11;54.87;93970.66;5004295;28;20034;-77
2022/07/11 00:38:13;;;;;;;4.38;1.27;;;;;;;16.12;55.31;93972.22;5004122;28;20025;-77
2022/07/11 00:40:38;;;;;;;4.95;1.45;;;;;;;16.15;55.31;93968.84;5003725;28;20073;-78
2022/07/11 00:43:04;;;;;;;1.88;1.00;;;;;;;16.13;55.63;93974.56;5004221;28;20044;-77
2022/07/11 00:45:30;;;;;;;5.15;1.25;;;;;;;16.16;55.72;93965.81;5003911;28;20376;-77
2022/07/11 00:47:58;;;;;;;3.22;1.20;;;;;;;16.10;55.43;93969.91;5004099;28;20238;-77
2022/07/11 00:50:27;;;;;;;4.00;1.05;;;;;;;16.14;55.68;93973.44;5004035;28;20045;-77
2022/07/11 00:52:54;;;;;;;2.88;1.23;;;;;;;16.14;55.83;93960.00;5003898;28;20061;-77
2022/07/11 00:55:21;;;;;;;4.90;2.08;;;;;;;16.05;55.56;93964.75;5003914;28;20057;-77
2022/07/11 00:57:47;;;;;;;2.03;1.02;;;;;;;16.08;55.54;93971.34;5004106;28;20030;-77
2022/07/11 01:00:13;;;;;;;1.77;1.20;;;;;;;16.04;55.32;93971.28;5003834;28;20027;-77
2022/07/11 01:02:39;;;;;;;2.60;1.17;;;;;;;16.01;55.50;93971.94;5003676;28;20096;-77
2022/07/11 01:05:05;;;;;;;3.30;1.20;;;;;;;16.03;55.13;93975.06;5003657;28;20038;-77
2022/07/11 01:07:32;;;;;;;5.57;0.88;;;;;;;16.03;55.27;93972.38;5003820;28;20213;-77
2022/07/11 01:09:58;;;;;;;5.80;1.00;;;;;;;15.97;54.55;93965.69;5003809;28;20026;-77
2022/07/11 01:12:24;;;;;;;4.05;1.30;;;;;;;16.01;54.51;93961.19;5003676;28;20339;-77
2022/07/11 01:14:59;;;;;;;3.08;1.15;;;;;;;15.89;54.70;93959.34;5003709;28;20036;-77
2022/07/11 01:17:24;;;;;;;3.53;1.10;;;;;;;15.84;54.47;93965.75;5003733;28;20026;-77
2022/07/11 01:19:50;;;;;;;4.75;1.27;;;;;;;15.86;54.37;93961.97;5003474;28;20077;-77
2022/07/11 01:22:20;;;;;;;1.85;1.00;;;;;;;15.88;54.17;93963.16;5003751;28;20022;-76
2022/07/11 01:24:46;;;;;;;4.13;1.00;;;;;;;15.93;54.41;93968.28;5003873;28;20042;-76
2022/07/11 01:27:13;;;;;;;2.50;1.20;;;;;;;15.94;54.30;93963.72;5003546;28;20126;-76
2022/07/11 01:29:39;;;;;;;2.53;1.20;;;;;;;15.86;53.68;93972.72;5003360;28;20058;-76
2022/07/11 01:32:06;;;;;;;5.38;0.88;;;;;;;15.83;53.82;93972.28;5003378;28;20026;-76
2022/07/11 01:34:31;;;;;;;1.83;1.02;;;;;;;15.84;53.63;93960.38;5003407;28;20073;-76
2022/07/11 01:36:57;;;;;;;1.90;1.20;;;;;;;15.87;54.10;93960.81;5003414;28;20038;-76
2022/07/11 01:39:22;;;;;;;3.75;0.90;;;;;;;15.86;53.69;93964.66;5004338;28;20097;-76
2022/07/11 01:41:48;;;;;;;2.22;1.02;;;;;;;15.86;53.89;93960.03;5007447;28;20046;-76
2022/07/11 01:44:13;;;;;;;2.63;1.10;;;;;;;15.80;53.50;93967.56;5007401;28;20260;-76
2022/07/11 01:46:39;;;;;;;1.63;0.85;;;;;;;15.83;54.47;93972.28;5007323;28;20022;-76
2022/07/11 01:49:04;;;;;;;2.35;1.00;;;;;;;15.81;54.32;93966.47;5007258;28;20228;-76
2022/07/11 01:51:29;;;;;;;6.70;1.58;;;;;;;15.77;54.56;93976.31;5007249;28;20029;-76
2022/07/11 01:53:55;;;;;;;2.25;0.90;;;;;;;15.73;54.83;93969.28;5007236;28;20065;-76
2022/07/11 01:56:22;;;;;;;2.78;1.10;;;;;;;15.71;54.66;93974.19;5007064;28;20046;-76
2022/07/11 01:58:48;;;;;;;3.35;1.00;;;;;;;15.69;54.72;93974.50;5007167;28;20026;-76
2022/07/11 02:01:14;;;;;;;3.83;1.10;;;;;;;15.62;54.90;93971.66;5007044;28;20038;-76
2022/07/11 02:03:39;;;;;;;3.40;1.05;;;;;;;15.59;55.01;93970.44;5006943;28;20030;-76
2022/07/11 02:06:05;;;;;;;1.92;1.13;;;;;;;15.64;55.21;93975.53;5006958;28;20042;-76
2022/07/11 02:08:30;;;;;;;3.35;1.05;;;;;;;15.58;55.50;93970.75;5007059;28;20018;-76
2022/07/11 02:10:56;;;;;;;1.65;1.00;;;;;;;15.53;55.43;93974.47;5006959;28;20037;-76
2022/07/11 02:13:25;;;;;;;1.90;1.00;;;;;;;15.52;55.81;93977.50;5006754;28;20022;-77
2022/07/11 02:15:53;;;;;;;1.90;0.93;;;;;;;15.51;55.01;93976.72;5006941;28;20018;-77
2022/07/11 02:18:19;;;;;;;3.67;1.15;;;;;;;15.44;55.20;93968.44;5006898;28;20324;-77
2022/07/11 02:20:51;;;;;;;2.63;0.88;;;;;;;15.39;55.73;93979.44;5006855;28;20260;-77
2022/07/11 02:23:18;;;;;;;4.63;1.10;;;;;;;15.43;55.28;93985.72;5006839;28;20260;-77
2022/07/11 02:25:44;;;;;;;3.92;1.33;;;;;;;15.43;55.33;93988.38;5006499;28;20030;-77
2022/07/11 02:28:10;;;;;;;2.58;1.10;;;;;;;15.34;55.87;93983.13;5006691;28;20053;-77
2022/07/11 02:30:37;;;;;;;5.40;1.20;;;;;;;15.28;55.94;93992.53;5006499;28;20022;-77
2022/07/11 02:33:03;;;;;;;1.27;0.80;;;;;;;15.31;56.24;93986.50;5006352;28;20033;-76
2022/07/11 02:35:29;;;;;;;4.47;1.20;;;;;;;15.27;56.21;93993.69;5006697;28;20034;-77
2022/07/11 02:37:54;;;;;;;1.80;1.00;;;;;;;15.27;56.04;93988.31;5006354;28;20334;-78
2022/07/11 02:40:20;;;;;;;4.03;1.05;;;;;;;15.20;55.97;93994.25;5006322;28;20052;-77
2022/07/11 02:42:45;;;;;;;2.17;0.98;;;;;;;15.15;56.06;93997.16;5006287;28;20029;-77
2022/07/11 02:45:11;;;;;;;2.10;1.05;;;;;;;15.18;56.21;93987.66;5006319;28;20029;-76
2022/07/11 02:47:39;;;;;;;2.08;1.60;;;;;;;15.18;55.85;93993.00;5006126;28;20045;-77
2022/07/11 02:50:09;;;;;;;5.38;1.30;;;;;;;15.19;56.19;93981.94;5005957;28;20018;-77
2022/07/11 02:52:35;;;;;;;2.70;0.93;;;;;;;15.16;55.98;93992.56;5006113;28;20026;-75
2022/07/11 02:55:01;;;;;;;1.40;0.90;;;;;;;15.16;55.94;93987.19;5006242;28;20316;-75
2022/07/11 02:57:27;;;;;;;2.00;0.98;;;;;;;15.12;56.07;93991.69;5006088;28;20130;-75
2022/07/11 02:59:52;;;;;;;4.40;1.13;;;;;;;15.09;56.34;93995.84;5006115;28;20034;-75
2022/07/11 03:02:18;;;;;;;1.77;0.98;;;;;;;15.09;56.16;94000.44;5005689;28;20034;-75
2022/07/11 03:04:43;;;;;;;3.25;1.83;;;;;;;15.07;56.42;94005.34;5006062;28;20130;-75
2022/07/11 03:07:09;;;;;;;11.23;1.27;;;;;;;15.12;55.87;94002.41;5005853;28;20046;-77
2022/07/11 03:09:34;;;;;;;6.45;1.30;;;;;;;15.08;55.75;94001.53;5005846;28;20309;-77
2022/07/11 03:12:01;;;;;;;2.20;1.02;;;;;;;15.04;56.00;94002.22;5005646;28;20034;-77
2022/07/11 03:14:27;;;;;;;3.92;0.93;;;;;;;15.09;55.88;94014.63;5005741;28;20029;-77
2022/07/11 03:16:52;;;;;;;2.03;1.33;;;;;;;15.15;55.34;94012.50;5006009;28;20018;-77
2022/07/11 03:19:17;;;;;;;6.72;1.00;;;;;;;15.19;55.08;94008.03;5005448;28;20024;-77
2022/07/11 03:21:43;;;;;;;3.72;1.52;;;;;;;15.19;54.67;94005.34;5005214;28;20347;-77
2022/07/11 03:24:08;;;;;;;3.45;1.20;;;;;;;15.20;54.27;94001.50;5005537;28;20090;-77
2022/07/11 03:26:34;;;;;;;1.55;0.90;;;;;;;15.24;54.48;94007.78;5005312;28;20022;-77
2022/07/11 03:28:59;;;;;;;3.35;1.00;;;;;;;15.30;54.59;94011.78;5005331;28;20029;-77
2022/07/11 03:31:24;;;;;;;3.45;1.10;;;;;;;15.32;54.25;94006.84;5005330;28;20010;-77
2022/07/11 03:33:50;;;;;;;5.18;0.80;;;;;;;15.37;54.01;94012.00;5005490;28;20316;-77
2022/07/11 03:36:15;;;;;;;1.38;0.88;;;;;;;15.37;54.10;94006.63;5005578;28;20083;-77
2022/07/11 03:38:41;;;;;;;2.05;1.17;;;;;;;15.41;54.20;94017.50;5005125;28;20253;-77
2022/07/11 03:41:06;;;;;;;3.78;1.35;;;;;;;15.42;54.54;94011.75;5004833;28;20038;-77
2022/07/11 03:43:32;;;;;;;3.63;1.00;;;;;;;15.47;54.44;94013.44;5005239;28;20018;-78
2022/07/11 03:45:57;;;;;;;1.50;1.05;;;;;;;15.50;54.86;94020.03;5004920;28;20065;-78
2022/07/11 03:48:23;;;;;;;6.03;1.13;;;;;;;15.51;55.04;94024.28;5005248;28;20097;-78
2022/07/11 03:50:49;;;;;;;2.65;1.23;;;;;;;15.51;55.42;94026.97;5004881;28;20018;-78
2022/07/11 03:53:14;;;;;;;2.55;1.50;;;;;;;15.49;55.79;94034.56;5004948;28;20358;-78
2022/07/11 03:55:40;;;;;;;4.20;2.50;;;;;;;15.48;55.64;94030.34;5004990;28;20022;-78
2022/07/11 03:58:06;;;;;;;2.25;1.33;;;;;;;15.48;55.50;94046.47;5004792;28;20202;-78
2022/07/11 04:00:31;;;;;;;3.30;1.40;;;;;;;15.47;55.86;94040.31;5004635;28;20311;-76
2022/07/11 04:02:57;;;;;;;6.25;1.20;;;;;;;15.50;55.58;94041.53;5004202;28;20045;-76
2022/07/11 04:05:24;;;;;;;4.97;2.10;;;;;;;15.44;56.03;94057.09;5004878;28;20069;-76
2022/07/11 04:07:49;;;;;;;2.70;1.27;;;;;;;15.37;56.58;94040.78;5004904;28;20037;-77
2022/07/11 04:10:17;;;;;;;2.30;1.40;;;;;;;15.40;57.23;94043.53;5004589;28;20389;-78
2022/07/11 04:12:42;;;;;;;3.55;1.48;;;;;;;15.41;57.86;94052.41;5004582;28;20071;-79
2022/07/11 04:15:09;;;;;;;3.38;2.05;;;;;;;15.38;58.47;94053.84;5004620;28;20022;-78
2022/07/11 04:17:34;;;;;;;3.95;2.38;;;;;;;15.36;58.41;94053.41;5004435;28;20306;-77
2022/07/11 04:20:00;;;;;;;4.03;2.10;;;;;;;15.32;58.73;94060.56;5004520;28;20068;-77
2022/07/11 04:22:26;;;;;;;4.25;1.63;;;;;;;15.31;58.45;94058.25;5004519;28;20368;-78
2022/07/11 04:24:51;;;;;;;7.05;1.60;;;;;;;15.37;58.20;94056.88;5004438;28;20034;-78
2022/07/11 04:27:17;;;;;;;4.93;1.58;;;;;;;15.40;58.70;94051.59;5004330;28;20034;-75
2022/07/11 04:29:42;;;;;;;3.17;1.63;;;;;;;15.44;58.40;94065.91;5004271;28;20093;-76
2022/07/11 04:32:08;;;;;;;3.75;1.45;;;;;;;15.49;58.83;94064.13;5004375;28;20052;-76
2022/07/11 04:34:33;;;;;;;4.85;1.70;;;;;;;15.53;58.83;94063.13;5004138;28;20026;-76
2022/07/11 04:36:59;;;;;;;5.10;1.52;;;;;;;15.50;58.11;94049.59;5004119;28;20026;-76
2022/07/11 04:39:24;;;;;;;3.00;1.55;;;;;;;15.51;58.01;94062.69;5004240;28;20026;-76
2022/07/11 04:41:51;;;;;;;4.40;1.65;;;;;;;15.57;58.78;94060.53;5003834;28;20050;-76
2022/07/11 04:44:16;;;;;;;2.55;1.20;;;;;;;15.61;57.61;94064.09;5004111;28;20034;-76
2022/07/11 04:46:41;;;;;;;4.53;1.40;;;;;;;15.60;57.40;94067.91;5003994;28;20375;-77
2022/07/11 04:49:07;;;;;;;2.80;1.20;;;;;;;15.71;57.14;94062.84;5003820;28;20339;-77
2022/07/11 04:51:33;;;;;;;4.00;1.52;;;;;;;15.77;57.95;94064.19;5003952;28;20026;-77
2022/07/11 04:53:58;;;;;;;4.18;1.88;;;;;;;15.73;57.98;94071.38;5003932;28;20130;-78
2022/07/11 04:56:23;;;;;;;6.07;1.30;;;;;;;15.75;57.31;94058.38;5003850;28;20022;-77
2022/07/11 04:58:49;;;;;;;5.40;1.42;;;;;;;15.77;56.86;94064.19;5003809;28;20022;-78
2022/07/11 05:01:15;;;;;;;3.10;1.50;;;;;;;15.82;57.04;94075.50;5003887;28;20030;-77
2022/07/11 05:03:40;;;;;;;2.70;1.40;;;;;;;15.86;57.09;94069.47;5003863;28;20081;-78
2022/07/11 05:06:06;;;;;;;3.97;1.45;;;;;;;15.94;56.72;94076.59;5003506;28;20048;-78
2022/07/11 05:08:36;;;;;;;3.20;1.63;;;;;;;15.98;57.78;94064.03;5003750;28;20030;-80
2022/07/11 05:11:02;;;;;;;2.50;1.23;;;;;;;16.03;56.68;94075.31;5003521;28;20081;-80
2022/07/11 05:13:27;;;;;;;4.30;1.40;;;;;;;16.05;56.39;94086.50;5003103;28;20037;-79
2022/07/11 05:15:53;;;;;;;4.38;1.50;;;;;;;16.12;54.98;94085.13;5003672;28;20030;-79
2022/07/11 05:18:19;;;;;;;5.22;1.55;;;;;;;16.16;56.39;94097.59;5003427;28;20026;-80
2022/07/11 05:20:44;;;;;;;4.55;1.25;;;;;;;16.13;54.45;94086.72;5003365;28;20041;-80
2022/07/11 05:23:09;;;;;;;5.90;1.52;;;;;;;16.09;54.71;94089.31;5003237;28;20027;-80
2022/07/11 05:25:35;;;;;;;8.00;1.48;;;;;;;16.19;55.01;94096.09;5003243;28;20198;-80
2022/07/11 05:28:00;;;;;;;3.22;1.58;;;;;;;16.21;56.07;94094.63;5003176;28;20022;-80
2022/07/11 05:30:26;;;;;;;4.55;1.40;;;;;;;16.19;55.96;94091.50;5003285;28;20018;-79
2022/07/11 05:32:51;;;;;;;4.03;1.20;;;;;;;16.28;53.00;94090.56;5003385;28;20116;-80
2022/07/11 05:35:17;;;;;;;2.03;0.80;;;;;;;16.35;50.54;94093.47;5003245;28;20205;-80
2022/07/11 05:37:42;;;;;;;2.35;1.17;;;;;;;16.37;51.74;94088.53;5003326;28;20069;-79
2022/07/11 05:40:09;;;;;;;8.48;1.30;;;;;;;16.43;50.76;94090.63;5003046;28;20240;-79
2022/07/11 05:42:34;;;;;;;5.55;1.70;;;;;;;16.52;50.97;94085.06;5003097;28;20061;-80
2022/07/11 05:45:00;;;;;;;5.32;1.45;;;;;;;16.51;50.98;94080.84;5003110;28;20022;-74
2022/07/11 05:47:25;;;;;;;8.68;1.45;;;;;;;16.50;51.29;94103.47;5003269;28;20018;-74
2022/07/11 05:49:51;;;;;;;5.60;1.40;;;;;;;16.44;50.65;94111.03;5003299;28;20093;-75
2022/07/11 05:52:17;;;;;;;3.65;1.15;;;;;;;16.42;50.94;94099.81;5003301;28;20026;-74
2022/07/11 05:54:42;;;;;;;3.40;1.20;;;;;;;16.41;51.00;94082.09;5003196;28;20201;-75
2022/07/11 05:57:07;;;;;;;4.47;1.27;;;;;;;16.47;49.76;94106.84;5002998;28;20018;-74
2022/07/11 05:59:35;;;;;;;2.92;1.10;;;;;;;16.43;47.85;94097.91;5003346;28;20042;-74
2022/07/11 06:02:02;;;;;;;3.47;0.90;;;;;;;16.42;48.66;94107.09;5003069;28;20022;-74
2022/07/11 06:04:27;;;;;;;4.15;0.95;;;;;;;16.35;47.86;94096.16;5002927;28;20018;-73
2022/07/11 06:06:53;;;;;;;2.65;0.93;;;;;;;16.43;49.95;94105.97;5003374;28;20363;-73
2022/07/11 06:09:18;;;;;;;1.65;1.00;;;;;;;16.39;50.26;94105.09;5003077;28;20249;-74
2022/07/11 06:11:44;;;;;;;3.83;1.05;;;;;;;16.48;50.39;94097.66;5002960;28;20022;-74
2022/07/11 06:14:09;;;;;;;7.82;1.17;;;;;;;16.52;49.02;94103.91;5003247;28;20030;-73
2022/07/11 06:16:35;;;;;;;3.90;1.52;;;;;;;16.67;47.55;94104.28;5003013;28;20026;-75
2022/07/11 06:19:01;;;;;;;3.40;0.95;;;;;;;16.72;48.33;94099.44;5003011;28;20029;-80
2022/07/11 06:21:27;;;;;;;3.92;1.40;;;;;;;16.84;47.46;94098.59;5002794;28;20019;-79
2022/07/11 06:23:53;;;;;;;5.22;1.20;;;;;;;16.83;47.74;94097.03;5002865;28;20395;-79
2022/07/11 06:26:18;;;;;;;4.30;1.10;;;;;;;16.88;49.06;94106.78;5003617;28;20026;-79
2022/07/11 06:28:44;;;;;;;2.70;0.95;;;;;;;16.89;46.69;94117.19;5004633;28;20054;-79
2022/07/11 06:31:09;;;;;;;8.38;1.10;;;;;;;16.94;46.24;94103.47;5004702;28;20014;-80
2022/07/11 06:33:35;;;;;;;2.85;1.08;;;;;;;17.05;44.34;94106.41;5004806;28;20050;-81
2022/07/11 06:36:02;;;;;;;1.15;0.75;;;;;;;16.95;42.24;94113.09;5004691;28;20022;-81
2022/07/11 06:38:29;;;;;;;2.20;0.70;;;;;;;16.88;43.96;94123.69;5004385;28;20232;-81
2022/07/11 06:40:55;;;;;;;2.33;0.73;;;;;;;16.80;44.07;94098.47;5004969;28;20295;-80
2022/07/11 06:43:20;;;;;;;2.75;0.70;;;;;;;16.84;43.46;94112.06;5006064;28;20026;-80
2022/07/11 06:45:47;;;;;;;9.57;1.15;;;;;;;16.93;43.85;94106.50;5006129;28;20022;-80
2022/07/11 06:48:13;;;;;;;5.18;1.60;;;;;;;16.95;42.32;94094.25;5006225;28;20030;-80
2022/07/11 06:50:39;;;;;;;7.20;0.80;;;;;;;16.97;43.12;94100.06;5005888;28;20025;-80
2022/07/11 06:53:04;;;;;;;2.65;1.25;;;;;;;17.03;41.47;94116.75;5006065;28;20045;-80
2022/07/11 06:55:31;;;;;;;1.33;0.55;;;;;;;17.09;41.30;94087.66;5005623;28;20220;-80
2022/07/11 06:57:57;;;;;;;2.42;0.73;;;;;;;17.04;40.26;94097.56;5006102;28;20030;-77
2022/07/11 07:00:22;;;;;;;3.38;0.68;;;;;;;17.07;40.63;94106.84;5005388;28;20026;-78
2022/07/11 07:02:48;;;;;;;3.80;0.57;;;;;;;17.06;41.27;94083.75;5005562;28;20109;-77
2022/07/11 07:05:13;;;;;;;3.78;0.60;;;;;;;17.03;40.73;94087.91;5005497;28;20101;-77
2022/07/11 07:07:39;;;;;;;3.13;0.77;;;;;;;17.09;38.68;94093.03;5005599;28;20034;-77
2022/07/11 07:10:05;;;;;;;4.90;0.88;;;;;;;17.08;39.92;94096.88;5005292;28;20063;-77
2022/07/11 07:12:30;;;;;;;1.17;0.60;;;;;;;17.09;39.52;94104.59;5005586;28;20045;-77
2022/07/11 07:14:56;;;;;;;1.25;0.73;;;;;;;17.09;40.08;94088.44;5005712;28;20078;-77
2022/07/11 07:17:21;;;;;;;1.67;0.85;;;;;;;17.13;40.00;94088.53;5005519;28;20026;-77
2022/07/11 07:19:47;;;;;;;3.17;0.95;;;;;;;17.21;41.28;94096.41;5005437;28;20096;-77
2022/07/11 07:22:16;;;;;;;1.98;0.93;;;;;;;17.30;40.18;94090.88;5005398;28;20022;-77
2022/07/11 07:24:44;;;;;;;2.20;0.70;;;;;;;17.36;40.97;94094.84;5005286;28;20045;-77
2022/07/11 07:27:09;;;;;;;3.88;0.88;;;;;;;17.29;41.82;94092.00;5005284;28;20387;-76
2022/07/11 07:29:35;;;;;;;1.67;0.90;;;;;;;17.24;42.05;94090.34;5005355;28;20068;-77
2022/07/11 07:32:01;;;;;;;2.58;0.68;;;;;;;17.30;43.10;94087.38;5005176;28;20018;-77
2022/07/11 07:34:26;;;;;;;2.97;1.10;;;;;;;17.36;44.23;94091.38;5005367;28;20313;-77
2022/07/11 07:36:52;;;;;;;4.10;0.82;;;;;;;17.47;43.44;94084.31;5003811;28;20217;-77
2022/07/11 07:39:18;;;;;;;4.25;1.05;;;;;;;17.55;44.92;94080.66;5005107;28;20023;-77
2022/07/11 07:41:43;;;;;;;1.50;0.70;;;;;;;17.72;44.55;94098.34;5005008;28;20261;-77
2022/07/11 07:44:09;;;;;;;2.95;0.82;;;;;;;17.67;43.70;94071.66;5005127;28;20026;-77
2022/07/11 07:46:35;;;;;;;3.15;1.30;;;;;;;17.61;43.78;94086.56;5005036;28;20041;-77
2022/07/11 07:49:00;;;;;;;6.63;1.73;;;;;;;17.55;43.92;94099.50;5005006;28;20069;-77
2022/07/11 07:51:26;;;;;;;2.22;0.80;;;;;;;17.49;43.15;94083.97;5005078;28;20255;-77
2022/07/11 07:53:52;;;;;;;6.50;1.20;;;;;;;17.44;43.15;94099.28;5004685;28;20101;-77
2022/07/11 07:56:17;;;;;;;4.13;0.68;;;;;;;17.49;42.94;94081.28;5004757;28;20034;-77
2022/07/11 07:58:43;;;;;;;3.05;0.95;;;;;;;17.49;44.31;94094.75;5004818;28;20157;-77
2022/07/11 08:03:53;;;;;;;2.55;0.77;;;;;;;17.37;44.02;94092.94;5004755;28;20037;-77
2022/07/11 08:06:19;;;;;;;2.53;0.90;;;;;;;17.45;44.78;94092.75;5004647;28;20049;-77
2022/07/11 08:08:45;;;;;;;4.07;0.60;;;;;;;17.41;43.86;94091.88;5004630;28;20257;-78
2022/07/11 08:11:10;;;;;;;1.13;0.77;;;;;;;17.42;43.97;94101.53;5004504;28;20089;-77
2022/07/11 08:13:37;;;;;;;23.30;1.77;;;;;;;17.38;44.05;94091.78;5004512;28;20022;-77
2022/07/11 08:16:04;;;;;;;2.75;0.70;;;;;;;17.42;43.06;94100.75;5004452;28;20029;-77
2022/07/11 08:18:29;;;;;;;6.40;2.45;;;;;;;17.46;43.42;94090.81;5004681;28;20069;-77
2022/07/11 08:20:56;;;;;;;5.45;0.70;;;;;;;17.50;41.90;94097.06;5004129;28;20030;-77
2022/07/11 08:23:21;;;;;;;3.47;0.70;;;;;;;17.54;42.69;94091.78;5004100;28;20053;-77
2022/07/11 08:25:47;;;;;;;5.40;0.90;;;;;;;17.43;42.23;94095.00;5004333;28;20084;-78
2022/07/11 08:28:12;;;;;;;4.13;0.73;;;;;;;17.49;42.43;94094.75;5004272;28;20041;-78
2022/07/11 08:30:37;;;;;;;2.03;0.57;;;;;;;17.35;41.29;94101.38;5004372;28;20029;-78
2022/07/11 08:33:03;;;;;;;4.88;1.00;;;;;;;17.38;42.15;94106.06;5003991;28;20026;-78
2022/07/11 08:35:29;;;;;;;1.45;0.60;;;;;;;17.39;41.49;94098.75;5004146;28;20048;-78
2022/07/11 08:37:54;;;;;;;1.85;0.70;;;;;;;17.38;40.98;94089.91;5004114;28;20018;-78
2022/07/11 08:40:20;;;;;;;6.78;0.82;;;;;;;17.44;42.37;94101.97;5003720;28;20034;-78
2022/07/11 08:42:45;;;;;;;4.20;1.05;;;;;;;17.50;41.30;94113.25;5003970;28;20022;-78
2022/07/11 08:45:16;;;;;;;3.55;0.93;;;;;;;17.40;42.17;94093.03;5003990;28;20030;-78
2022/07/11 08:47:43;;;;;;;1.33;0.52;;;;;;;17.38;40.32;94100.69;5003677;28;20037;-77
2022/07/11 08:50:12;;;;;;;4.38;0.90;;;;;;;17.41;41.12;94102.66;5003769;28;20018;-78
2022/07/11 08:52:38;;;;;;;2.42;0.60;;;;;;;17.52;42.83;94083.25;5003864;28;20057;-79
2022/07/11 08:55:08;;;;;;;6.20;1.00;;;;;;;17.58;41.13;94104.19;5003747;28;20069;-79
2022/07/11 08:57:35;;;;;;;3.50;0.82;;;;;;;17.52;40.58;94094.81;5003814;28;20030;-78
2022/07/11 09:00:01;;;;;;;6.65;0.77;;;;;;;17.41;39.28;94113.44;5003896;28;20037;-78
2022/07/11 09:02:27;;;;;;;5.38;0.77;;;;;;;17.41;40.15;94097.28;5003679;28;20240;-78
2022/07/11 09:04:52;;;;;;;1.63;0.70;;;;;;;17.45;40.63;94103.53;5003561;28;20034;-78
2022/07/11 09:07:18;;;;;;;0.90;0.55;;;;;;;17.45;40.05;94110.84;5003812;28;20026;-78
2022/07/11 09:09:44;;;;;;;4.65;0.85;;;;;;;17.30;40.74;94095.44;5003697;28;20030;-79
2022/07/11 09:12:16;;;;;;;2.97;1.00;;;;;;;17.36;40.39;94113.72;5003446;28;20018;-78
2022/07/11 09:14:50;;;;;;;1.52;1.02;;;;;;;17.36;40.06;94121.81;5003604;28;20026;-78
2022/07/11 09:17:28;;;;;;;0.63;0.40;;;;;;;17.32;40.13;94117.44;5003623;28;20033;-77
2022/07/11 09:19:54;;;;;;;1.02;0.50;;;;;;;17.32;39.88;94106.66;5003371;28;20328;-77
2022/07/11 09:28:01;;;;;;;1.50;0.70;;;;;;;17.53;40.21;94119.88;5003447;28;20030;-78
2022/07/11 09:30:42;;;;;;;1.55;0.40;;;;;;;17.50;40.34;94118.63;5003304;28;20339;-78
2022/07/11 09:33:10;;;;;;;1.37;0.63;;;;;;;17.53;39.10;94119.88;5003522;28;20033;-78
2022/07/11 09:35:38;;;;;;;2.47;0.70;;;;;;;17.49;39.12;94110.91;5003184;28;20021;-78
2022/07/11 09:38:10;;;;;;;6.50;0.68;;;;;;;17.60;41.67;94109.22;5003289;28;20022;-78
2022/07/11 09:40:36;;;;;;;3.10;0.70;;;;;;;17.83;40.02;94126.34;5002963;28;20038;-78
2022/07/11 09:43:03;;;;;;;1.63;0.57;;;;;;;17.74;39.89;94128.41;5002093;28;20260;-78
2022/07/11 09:45:30;;;;;;;7.43;1.00;;;;;;;17.85;40.05;94123.31;5002367;28;20369;-78
2022/07/11 09:48:06;;;;;;;4.72;0.50;;;;;;;17.86;39.48;94113.28;5003288;28;20198;-78
2022/07/11 09:50:31;;;;;;;2.70;0.80;;;;;;;17.89;41.98;94117.97;5003231;28;20081;-78
2022/07/11 09:53:03;;;;;;;4.38;0.82;;;;;;;17.98;39.86;94119.34;5003136;28;20034;-78
2022/07/11 09:55:30;;;;;;;3.30;0.65;;;;;;;17.82;38.93;94105.09;5002153;28;20245;-78
2022/07/11 09:57:56;;;;;;;1.17;0.70;;;;;;;17.96;39.70;94116.22;5002855;28;20037;-77
2022/07/11 10:00:22;;;;;;;8.07;0.70;;;;;;;18.13;39.24;94114.22;5003915;28;20027;-78
2022/07/11 10:02:47;;;;;;;11.35;0.95;;;;;;;18.32;38.17;94140.44;5006782;28;20248;-78
2022/07/11 10:05:13;;;;;;;8.52;0.93;;;;;;;18.31;39.45;94122.69;5006566;28;20026;-78
2022/07/11 10:07:38;;;;;;;1.65;0.95;;;;;;;18.31;39.01;94109.97;5006872;28;20022;-78
2022/07/11 10:10:06;;;;;;;2.92;0.60;;;;;;;18.14;38.92;94107.72;5006788;28;20346;-78
2022/07/11 10:12:32;;;;;;;1.60;0.70;;;;;;;18.04;39.63;94120.63;5006734;28;20048;-77
2022/07/11 10:15:03;;;;;;;1.50;0.70;;;;;;;17.99;40.61;94118.22;5006538;28;20081;-78
2022/07/11 10:17:56;;;;;;;7.47;0.73;;;;;;;18.08;40.67;94104.50;5006495;28;20106;-78
2022/07/11 10:20:48;;;;;;;3.97;0.60;;;;;;;18.35;39.93;94112.75;5006429;28;20026;-78
2022/07/11 10:23:21;;;;;;;3.42;0.65;;;;;;;18.30;39.37;94121.91;5006564;28;20085;-77
2022/07/11 10:25:49;;;;;;;10.02;0.88;;;;;;;18.41;37.73;94122.13;5006479;28;20209;-78
2022/07/11 10:28:42;;;;;;;1.88;0.70;;;;;;;18.48;37.89;94108.78;5006385;28;20030;-78
2022/07/11 10:31:22;;;;;;;3.30;0.98;;;;;;;18.45;37.19;94112.16;5006373;28;20018;-78
2022/07/11 10:34:04;;;;;;;2.50;0.75;;;;;;;18.47;37.82;94111.81;5006193;28;20308;-78
2022/07/11 10:36:31;;;;;;;;;;;;;;;18.57;38.46;94135.53;5006576;28;20022;-79
2022/07/11 10:39:32;;;;;;;2.08;0.73;;;;;;;18.52;37.69;94139.31;5006190;28;19973;-78
2022/07/11 10:41:59;;;;;;;3.65;0.77;;;;;;;18.38;37.53;94123.63;5005026;28;20046;-78
2022/07/11 10:44:27;;;;;;;3.05;0.73;;;;;;;18.18;37.52;94124.75;5006016;28;20251;-78
2022/07/11 10:46:53;;;;;;;4.57;0.82;;;;;;;18.37;38.12;94119.34;5005885;28;20034;-78
2022/07/11 10:49:43;;;;;;;1.15;0.55;;;;;;;18.45;37.21;94144.56;5006099;28;20109;-78
2022/07/11 10:52:08;;;;;;;4.40;0.60;;;;;;;18.33;36.62;94123.88;5006158;28;20248;-78
2022/07/11 10:54:48;;;;;;;2.03;0.70;;;;;;;18.42;38.05;94129.09;5004907;28;20065;-78
2022/07/11 10:57:33;;;;;;;2.35;0.80;;;;;;;18.52;36.36;94128.50;5004599;28;20030;-78
2022/07/11 11:00:03;;;;;;;2.08;1.00;;;;;;;18.57;36.94;94122.81;5005690;28;20404;-77
2022/07/11 11:02:31;;;;;;;3.85;1.33;;;;;;;18.73;38.44;94116.56;5005675;28;20030;-78
2022/07/11 11:05:01;;;;;;;2.08;1.05;;;;;;;18.90;38.31;94126.13;5005811;28;20080;-78
2022/07/11 11:07:44;;;;;;;2.40;0.63;;;;;;;18.77;36.51;94133.59;5005543;28;20022;-78
2022/07/11 11:10:19;;;;;;;1.38;0.65;;;;;;;18.75;36.37;94133.19;5005730;28;20106;-78
2022/07/11 11:13:06;;;;;;;3.67;0.70;;;;;;;18.70;36.22;94138.84;5005184;28;20382;-78
2022/07/11 11:15:42;;;;;;;2.30;0.60;;;;;;;18.76;35.28;94130.09;5005631;28;20109;-78
2022/07/11 11:18:25;;;;;;;3.17;0.70;;;;;;;18.87;37.39;94145.75;5005308;28;20088;-78
2022/07/11 11:21:03;;;;;;;2.63;0.95;;;;;;;18.92;35.42;94134.66;5005110;28;20042;-78
2022/07/11 11:23:39;;;;;;;6.25;1.00;;;;;;;19.03;36.03;94149.91;5005263;28;20026;-78
2022/07/11 11:26:19;;;;;;;4.00;0.63;;;;;;;18.94;36.39;94149.34;5005363;28;20022;-78
2022/07/11 11:29:06;;;;;;;0.52;0.47;;;;;;;18.98;35.24;94144.03;5004996;28;20025;-77
2022/07/11 11:31:32;;;;;;;5.07;1.02;;;;;;;19.08;36.16;94140.72;5005236;28;20060;-78
2022/07/11 11:33:59;;;;;;;2.88;0.60;;;;;;;19.02;35.04;94142.16;5005015;28;20224;-78
2022/07/11 11:36:26;;;;;;;0.98;0.63;;;;;;;18.82;36.57;94133.31;5005118;28;20018;-77
2022/07/11 11:38:52;;;;;;;2.03;0.82;;;;;;;19.00;36.93;94137.13;5004956;28;20094;-78
2022/07/11 11:41:29;;;;;;;6.95;0.93;;;;;;;19.15;35.31;94143.56;5004021;28;20197;-78
2022/07/11 11:43:57;;;;;;;12.77;3.90;;;;;;;19.22;35.55;94142.88;5002958;28;20030;-77